createdAt,value
2023-03-11T00:00:46.949Z,65.67
2023-03-11T00:03:17.171Z,66.10
2023-03-11T00:05:46.892Z,64.53
2023-03-11T00:08:22.636Z,64.60
2023-03-11T00:10:58.710Z,64.27
2023-03-11T00:13:26.368Z,63.03
2023-03-11T00:15:56.261Z,64.67
2023-03-11T00:18:27.117Z,63.80
2023-03-11T00:20:56.502Z,63.40
2023-03-11T00:23:24.479Z,64.23
2023-03-11T00:25:51.475Z,64.13
2023-03-11T00:28:18.647Z,64.70
2023-03-11T00:30:46.729Z,63.67
2023-03-11T00:33:15.819Z,63.73
2023-03-11T00:35:44.830Z,65.00
2023-03-11T00:38:15.576Z,62.07
2023-03-11T00:40:44.071Z,63.47
2023-03-11T00:43:11.567Z,63.40
2023-03-11T00:45:39.104Z,64.13
2023-03-11T00:48:07.698Z,64.33
2023-03-11T00:50:37.377Z,63.73
2023-03-11T00:53:06.394Z,64.17
2023-03-11T00:55:35.563Z,63.67
2023-03-11T00:58:07.368Z,64.17
2023-03-11T01:00:47.620Z,63.70
2023-03-11T01:03:14.755Z,63.80
2023-03-11T01:05:41.726Z,61.67
2023-03-11T01:08:08.604Z,63.37
2023-03-11T01:10:36.644Z,63.07
2023-03-11T01:13:04.209Z,62.97
2023-03-11T01:15:35.383Z,63.17
2023-03-11T01:18:04.277Z,62.10
2023-03-11T01:20:33.784Z,63.47
2023-03-11T01:23:00.828Z,61.97
2023-03-11T01:25:29.123Z,63.83
2023-03-11T01:27:58.921Z,63.03
2023-03-11T01:30:26.856Z,65.43
2023-03-11T01:32:55.864Z,64.07
2023-03-11T01:35:25.592Z,66.43
2023-03-11T01:37:54.674Z,65.23
2023-03-11T01:40:38.267Z,62.67
2023-03-11T01:43:37.229Z,62.17
2023-03-11T01:46:27.494Z,62.80
2023-03-11T01:48:58.856Z,61.83
2023-03-11T01:51:42.096Z,61.50
2023-03-11T01:54:15.461Z,61.50
2023-03-11T01:56:43.221Z,61.80
2023-03-11T01:59:16.137Z,61.77
2023-03-11T02:02:06.966Z,61.63
2023-03-11T02:04:37.811Z,61.27
2023-03-11T02:07:07.713Z,60.10
2023-03-11T02:09:34.939Z,60.70
2023-03-11T02:12:03.426Z,59.40
2023-03-11T02:14:32.079Z,61.73
2023-03-11T02:17:00.733Z,60.53
2023-03-11T02:19:56.435Z,60.47
2023-03-11T02:22:25.133Z,59.40
2023-03-11T02:25:03.975Z,59.77
2023-03-11T02:27:33.784Z,58.90
2023-03-11T02:30:04.425Z,60.73
2023-03-11T02:32:35.005Z,59.37
2023-03-11T02:35:02.175Z,60.93
2023-03-11T02:37:29.174Z,59.43
2023-03-11T02:40:23.887Z,60.97
2023-03-11T02:42:58.444Z,60.27
2023-03-11T02:45:27.459Z,59.53
2023-03-11T02:47:57.390Z,60.03
2023-03-11T02:50:25.681Z,60.40
2023-03-11T02:52:52.914Z,58.07
2023-03-11T02:55:22.579Z,58.93
2023-03-11T02:57:49.470Z,61.93
2023-03-11T03:00:18.265Z,60.57
2023-03-11T03:02:55.610Z,63.30
2023-03-11T03:05:23.305Z,63.43
2023-03-11T03:07:51.843Z,62.37
2023-03-11T03:10:21.083Z,62.23
2023-03-11T03:12:48.481Z,61.50
2023-03-11T03:15:16.461Z,61.87
2023-03-11T03:17:44.547Z,63.23
2023-03-11T03:20:13.972Z,62.53
2023-03-11T03:22:45.327Z,60.67
2023-03-11T03:25:15.250Z,59.90
2023-03-11T03:27:42.378Z,58.50
2023-03-11T03:30:11.276Z,59.93
2023-03-11T03:32:39.362Z,61.53
2023-03-11T03:35:10.931Z,59.83
2023-03-11T03:37:55.481Z,62.13
2023-03-11T03:40:23.694Z,59.50
2023-03-11T03:42:52.575Z,63.27
2023-03-11T03:45:20.205Z,62.13
2023-03-11T03:47:49.042Z,63.23
2023-03-11T03:50:17.408Z,57.00
2023-03-11T03:52:47.129Z,56.60
2023-03-11T03:55:15.191Z,57.03
2023-03-11T03:57:42.432Z,55.57
2023-03-11T04:00:14.117Z,56.27
2023-03-11T04:02:40.996Z,59.40
2023-03-11T04:05:14.936Z,60.23
2023-03-11T04:07:42.685Z,57.80
2023-03-11T04:10:11.089Z,64.07
2023-03-11T04:12:38.657Z,59.23
2023-03-11T04:15:07.982Z,59.53
2023-03-11T04:17:35.729Z,58.93
2023-03-11T04:20:03.120Z,57.67
2023-03-11T04:22:30.506Z,60.47
2023-03-11T04:24:59.066Z,57.83
2023-03-11T04:27:26.585Z,58.10
2023-03-11T04:29:53.985Z,57.37
2023-03-11T04:32:22.992Z,56.60
2023-03-11T04:34:50.888Z,56.80
2023-03-11T04:37:18.801Z,57.60
2023-03-11T04:39:46.120Z,58.30
2023-03-11T04:42:14.106Z,62.17
2023-03-11T04:44:43.360Z,60.93
2023-03-11T04:47:10.955Z,63.07
2023-03-11T04:49:38.370Z,67.87
2023-03-11T04:52:05.536Z,67.03
2023-03-11T04:54:32.538Z,62.83
2023-03-11T04:56:59.543Z,60.13
2023-03-11T04:59:27.064Z,59.37
2023-03-11T05:01:54.365Z,61.60
2023-03-11T05:04:21.926Z,57.77
2023-03-11T05:06:51.223Z,57.10
2023-03-11T05:09:18.814Z,55.77
2023-03-11T05:11:46.146Z,56.37
2023-03-11T05:14:14.241Z,55.33
2023-03-11T05:16:41.778Z,56.17
2023-03-11T05:19:28.754Z,53.87
2023-03-11T05:21:56.569Z,54.43
2023-03-11T05:24:28.546Z,54.43
2023-03-11T05:26:56.428Z,58.00
2023-03-11T05:29:25.274Z,54.67
2023-03-11T05:31:53.776Z,54.73
2023-03-11T05:34:21.232Z,54.70
2023-03-11T05:36:48.252Z,54.23
2023-03-11T05:39:15.629Z,54.30
2023-03-11T05:41:43.112Z,54.97
2023-03-11T05:44:10.196Z,54.17
2023-03-11T05:46:37.248Z,54.53
2023-03-11T05:49:06.054Z,54.20
2023-03-11T05:51:32.975Z,54.23
2023-03-11T05:54:00.928Z,54.47
2023-03-11T05:56:36.177Z,57.47
2023-03-11T05:59:04.235Z,64.80
2023-03-11T06:01:34.650Z,63.43
2023-03-11T06:04:02.242Z,60.60
2023-03-11T06:06:29.739Z,57.23
2023-03-11T06:08:57.200Z,56.37
2023-03-11T06:11:27.820Z,55.80
2023-03-11T06:13:57.490Z,57.43
2023-03-11T06:16:27.265Z,56.73
2023-03-11T06:19:00.621Z,56.13
2023-03-11T06:21:30.827Z,55.20
2023-03-11T06:23:59.104Z,55.47
2023-03-11T06:26:30.181Z,54.63
2023-03-11T06:28:57.956Z,54.97
2023-03-11T06:31:30.427Z,54.20
2023-03-11T06:34:05.448Z,55.13
2023-03-11T06:36:33.113Z,55.80
2023-03-11T06:39:00.440Z,55.13
2023-03-11T06:41:28.993Z,55.53
2023-03-11T06:43:59.723Z,55.20
2023-03-11T06:46:28.263Z,55.90
2023-03-11T06:48:57.356Z,55.37
2023-03-11T06:51:25.064Z,56.03
2023-03-11T06:53:53.663Z,55.57
2023-03-11T06:56:23.363Z,57.37
2023-03-11T06:58:56.377Z,56.53
2023-03-11T07:01:28.150Z,58.33
2023-03-11T07:03:57.020Z,58.73
2023-03-11T07:06:26.896Z,57.87
2023-03-11T07:09:00.560Z,60.23
2023-03-11T07:11:29.430Z,58.97
2023-03-11T07:14:04.559Z,64.27
2023-03-11T07:16:34.259Z,64.67
2023-03-11T07:19:07.844Z,62.10
2023-03-11T07:21:35.179Z,62.43
2023-03-11T07:24:03.258Z,62.87
2023-03-11T07:26:32.302Z,61.37
2023-03-11T07:29:00.213Z,63.63
2023-03-11T07:31:30.692Z,59.63
2023-03-11T07:34:00.351Z,58.20
2023-03-11T07:36:28.900Z,58.73
2023-03-11T07:39:04.235Z,59.23
2023-03-11T07:41:35.626Z,58.03
2023-03-11T07:44:04.273Z,57.53
2023-03-11T07:46:32.412Z,59.73
2023-03-11T07:49:00.700Z,58.17
2023-03-11T07:51:31.167Z,57.33
2023-03-11T07:53:59.746Z,59.77
2023-03-11T07:56:33.328Z,58.27
2023-03-11T07:59:02.544Z,59.87
2023-03-11T08:01:36.315Z,58.87
2023-03-11T08:04:09.982Z,58.97
2023-03-11T08:06:38.078Z,57.30
2023-03-11T08:09:09.204Z,57.87
2023-03-11T08:11:37.053Z,56.93
2023-03-11T08:14:05.087Z,57.50
2023-03-11T08:16:32.448Z,57.53
2023-03-11T08:18:59.401Z,57.53
2023-03-11T08:21:32.070Z,56.37
2023-03-11T08:24:01.406Z,58.17
2023-03-11T08:26:29.439Z,60.67
2023-03-11T08:28:58.048Z,64.40
2023-03-11T08:31:31.839Z,60.73
2023-03-11T08:34:02.590Z,58.93
2023-03-11T08:36:30.638Z,61.63
2023-03-11T08:38:58.308Z,60.87
2023-03-11T08:41:26.262Z,61.90
2023-03-11T08:43:53.660Z,60.50
2023-03-11T08:46:32.779Z,60.37
2023-03-11T08:49:01.518Z,60.27
2023-03-11T08:51:30.227Z,60.83
2023-03-11T08:53:57.546Z,60.23
2023-03-11T08:56:24.672Z,59.10
2023-03-11T08:58:51.972Z,59.40
2023-03-11T09:01:20.271Z,59.17
2023-03-11T09:03:47.500Z,60.97
2023-03-11T09:06:16.844Z,61.10
2023-03-11T09:08:45.524Z,61.03
2023-03-11T09:11:13.625Z,58.80
2023-03-11T09:13:41.960Z,61.23
2023-03-11T09:16:19.122Z,62.87
2023-03-11T09:18:46.452Z,57.40
2023-03-11T09:21:13.823Z,60.63
2023-03-11T09:23:44.031Z,60.00
2023-03-11T09:26:11.865Z,58.90
2023-03-11T09:28:39.383Z,58.90
2023-03-11T09:31:06.698Z,61.27
2023-03-11T09:33:39.572Z,59.13
2023-03-11T09:36:07.747Z,56.83
2023-03-11T09:38:34.712Z,58.27
2023-03-11T09:41:27.670Z,58.93
2023-03-11T09:44:19.626Z,59.77
2023-03-11T09:47:17.816Z,60.70
2023-03-11T09:50:18.424Z,61.20
2023-03-11T09:53:11.865Z,59.23
2023-03-11T09:55:46.267Z,60.67
2023-03-11T09:58:38.113Z,59.13
2023-03-11T10:01:20.898Z,59.53
2023-03-11T10:03:48.693Z,59.97
2023-03-11T10:06:21.379Z,60.10
2023-03-11T10:08:59.963Z,59.63
2023-03-11T10:12:13.318Z,60.23
2023-03-11T10:15:19.333Z,58.43
2023-03-11T10:17:51.918Z,57.77
2023-03-11T10:20:59.398Z,58.10
2023-03-11T10:23:47.974Z,54.77
2023-03-11T10:26:36.263Z,55.57
2023-03-11T10:29:22.868Z,54.57
2023-03-11T10:32:26.120Z,54.10
2023-03-11T10:35:11.221Z,53.23
2023-03-11T10:37:49.831Z,53.00
2023-03-11T10:40:30.069Z,52.53
2023-03-11T10:43:03.882Z,52.47
2023-03-11T10:45:41.280Z,53.20
2023-03-11T10:48:14.503Z,53.40
2023-03-11T10:51:18.153Z,52.97
2023-03-11T10:53:55.871Z,53.20
2023-03-11T10:56:37.281Z,52.73
2023-03-11T10:59:29.533Z,53.37
2023-03-11T11:02:52.858Z,54.30
2023-03-11T11:05:22.446Z,54.37
2023-03-11T11:08:07.154Z,54.97
2023-03-11T11:10:36.692Z,55.60
2023-03-11T11:13:12.627Z,55.53
2023-03-11T11:15:50.750Z,54.43
2023-03-11T11:18:27.303Z,55.83
2023-03-11T11:21:09.054Z,54.00
2023-03-11T11:23:44.406Z,52.60
2023-03-11T11:26:25.838Z,53.33
2023-03-11T11:29:10.442Z,53.07
2023-03-11T11:31:43.843Z,53.77
2023-03-11T11:34:34.345Z,53.93
2023-03-11T11:37:04.798Z,54.10
2023-03-11T11:39:45.828Z,53.40
2023-03-11T11:42:13.782Z,55.53
2023-03-11T11:44:43.303Z,56.27
2023-03-11T11:47:24.195Z,56.03
2023-03-11T11:49:57.258Z,54.63
2023-03-11T11:52:40.793Z,54.37
2023-03-11T11:55:20.336Z,56.30
2023-03-11T11:57:48.071Z,54.93
2023-03-11T12:00:23.659Z,54.63
2023-03-11T12:03:25.549Z,54.53
2023-03-11T12:05:59.196Z,55.10
2023-03-11T12:08:48.233Z,54.80
2023-03-11T12:11:30.317Z,54.50
2023-03-11T12:14:27.012Z,54.03
2023-03-11T12:17:05.094Z,55.07
2023-03-11T12:19:42.665Z,55.03
2023-03-11T12:22:35.794Z,54.90
2023-03-11T12:25:39.584Z,55.47
2023-03-11T12:28:38.450Z,54.77
2023-03-11T12:31:10.574Z,57.87
2023-03-11T12:33:51.073Z,55.57
2023-03-11T12:36:30.215Z,54.70
2023-03-11T12:38:58.453Z,56.27
2023-03-11T12:41:39.015Z,56.13
2023-03-11T12:44:26.658Z,56.47
2023-03-11T12:46:59.443Z,56.67
2023-03-11T12:49:40.754Z,56.37
2023-03-11T12:52:13.864Z,56.47
2023-03-11T12:55:01.134Z,56.70
2023-03-11T12:57:35.798Z,56.17
2023-03-11T13:00:27.509Z,57.83
2023-03-11T13:03:33.425Z,55.93
2023-03-11T13:07:09.899Z,55.97
2023-03-11T13:09:37.259Z,55.40
2023-03-11T13:12:38.330Z,55.60
2023-03-11T13:15:20.171Z,55.30
2023-03-11T13:18:24.690Z,55.07
2023-03-11T13:20:57.858Z,55.27
2023-03-11T13:23:40.459Z,55.43
2023-03-11T13:26:15.469Z,54.77
2023-03-11T13:29:43.822Z,54.83
2023-03-11T13:32:52.727Z,53.80
2023-03-11T13:35:48.752Z,54.40
2023-03-11T13:38:30.620Z,54.90
2023-03-11T13:40:58.345Z,54.77
2023-03-11T13:43:26.682Z,53.63
2023-03-11T13:46:26.572Z,54.27
2023-03-11T13:49:06.737Z,54.57
2023-03-11T13:51:41.366Z,54.53
2023-03-11T13:54:20.258Z,54.43
2023-03-11T13:56:57.260Z,54.13
2023-03-11T13:59:34.781Z,55.13
2023-03-11T14:02:11.930Z,54.27
2023-03-11T14:04:50.916Z,53.83
2023-03-11T14:07:34.376Z,55.77
2023-03-11T14:10:27.727Z,54.33
2023-03-11T14:13:17.329Z,54.30
2023-03-11T14:16:20.415Z,55.13
2023-03-11T14:19:12.250Z,54.73
2023-03-11T14:21:43.961Z,54.07
2023-03-11T14:24:21.044Z,53.87
2023-03-11T14:26:48.720Z,52.87
2023-03-11T14:29:21.254Z,53.60
2023-03-11T14:31:48.972Z,64.73
2023-03-11T14:34:27.805Z,52.97
2023-03-11T14:37:00.604Z,52.67
2023-03-11T14:39:35.323Z,52.23
2023-03-11T14:42:18.874Z,52.37
2023-03-11T14:45:15.519Z,52.37
2023-03-11T14:47:54.959Z,53.37
2023-03-11T14:50:29.186Z,51.27
2023-03-11T14:53:10.390Z,51.67
2023-03-11T14:55:50.959Z,52.40
2023-03-11T14:58:37.024Z,51.13
2023-03-11T15:01:05.951Z,50.87
2023-03-11T15:03:39.893Z,50.77
2023-03-11T15:06:12.263Z,51.23
2023-03-11T15:08:49.120Z,50.30
2023-03-11T15:11:16.415Z,50.43
2023-03-11T15:13:47.355Z,50.37
2023-03-11T15:16:31.572Z,51.57
2023-03-11T15:19:29.846Z,50.40
2023-03-11T15:22:25.603Z,51.17
2023-03-11T15:25:00.995Z,50.73
2023-03-11T15:27:37.821Z,51.53
2023-03-11T15:30:26.186Z,51.17
2023-03-11T15:32:54.325Z,50.20
2023-03-11T15:35:30.795Z,50.63
2023-03-11T15:38:25.811Z,50.70
2023-03-11T15:41:02.308Z,50.53
2023-03-11T15:43:34.331Z,50.90
2023-03-11T15:46:03.113Z,50.70
2023-03-11T15:48:31.236Z,51.07
2023-03-11T15:51:00.143Z,51.63
2023-03-11T15:53:29.577Z,51.10
2023-03-11T15:56:07.827Z,51.00
2023-03-11T15:58:37.731Z,50.83
2023-03-11T16:01:05.315Z,49.83
2023-03-11T16:03:32.658Z,50.87
2023-03-11T16:05:59.970Z,50.03
2023-03-11T16:08:27.575Z,50.97
2023-03-11T16:10:55.211Z,49.90
2023-03-11T16:13:22.472Z,49.47
2023-03-11T16:15:49.815Z,50.77
2023-03-11T16:18:17.193Z,51.90
2023-03-11T16:20:50.779Z,51.17
2023-03-11T16:23:25.740Z,50.53
2023-03-11T16:25:59.296Z,50.63
2023-03-11T16:28:26.586Z,51.83
2023-03-11T16:30:54.063Z,50.37
2023-03-11T16:33:21.435Z,49.90
2023-03-11T16:35:49.058Z,50.80
2023-03-11T16:38:17.695Z,50.07
2023-03-11T16:40:45.211Z,50.63
2023-03-11T16:43:14.638Z,50.40
2023-03-11T16:45:42.085Z,49.87
2023-03-11T16:48:09.541Z,65.37
2023-03-11T16:50:37.677Z,72.60
2023-03-11T16:53:05.058Z,50.50
2023-03-11T16:55:32.500Z,49.37
2023-03-11T16:57:59.823Z,50.73
2023-03-11T17:00:27.533Z,50.03
2023-03-11T17:02:54.996Z,50.70
2023-03-11T17:05:22.603Z,50.40
2023-03-11T17:08:00.639Z,49.67
2023-03-11T17:10:28.599Z,50.17
2023-03-11T17:12:55.995Z,54.63
2023-03-11T17:15:23.415Z,51.80
2023-03-11T17:17:51.424Z,51.53
2023-03-11T17:20:21.149Z,52.33
2023-03-11T17:22:49.126Z,51.87
2023-03-11T17:25:16.501Z,52.33
2023-03-11T17:27:43.843Z,51.43
2023-03-11T17:30:13.015Z,51.97
2023-03-11T17:32:40.340Z,52.10
2023-03-11T17:35:07.893Z,56.20
2023-03-11T17:37:35.339Z,55.33
2023-03-11T17:40:02.719Z,52.27
2023-03-11T17:42:30.016Z,50.93
2023-03-11T17:44:57.990Z,51.20
2023-03-11T17:47:26.194Z,52.03
2023-03-11T17:49:54.064Z,61.73
2023-03-11T17:52:21.326Z,54.33
2023-03-11T17:54:48.643Z,50.77
2023-03-11T17:57:15.930Z,52.00
2023-03-11T17:59:43.252Z,51.83
2023-03-11T18:02:14.106Z,52.90
2023-03-11T18:04:45.789Z,52.27
2023-03-11T18:07:13.297Z,51.70
2023-03-11T18:09:40.660Z,51.13
2023-03-11T18:12:08.019Z,50.27
2023-03-11T18:14:36.644Z,50.80
2023-03-11T18:17:04.004Z,52.47
2023-03-11T18:19:30.977Z,51.57
2023-03-11T18:21:58.252Z,51.63
2023-03-11T18:24:25.518Z,52.30
2023-03-11T18:26:52.803Z,50.70
2023-03-11T18:29:20.071Z,51.10
2023-03-11T18:31:47.379Z,51.00
2023-03-11T18:34:14.998Z,51.83
2023-03-11T18:36:42.610Z,51.13
2023-03-11T18:39:12.551Z,51.77
2023-03-11T18:41:40.634Z,56.10
2023-03-11T18:44:08.226Z,50.13
2023-03-11T18:46:35.647Z,49.77
2023-03-11T18:49:03.941Z,50.97
2023-03-11T18:51:33.009Z,50.30
2023-03-11T18:54:00.826Z,52.23
2023-03-11T18:56:30.957Z,48.93
2023-03-11T18:58:59.135Z,50.50
2023-03-11T19:01:27.449Z,49.37
2023-03-11T19:03:59.951Z,51.10
2023-03-11T19:06:29.016Z,49.00
2023-03-11T19:08:57.737Z,48.40
2023-03-11T19:11:25.645Z,49.53
2023-03-11T19:13:53.163Z,49.53
2023-03-11T19:16:24.088Z,49.17
2023-03-11T19:18:53.768Z,48.43
2023-03-11T19:21:21.857Z,48.83
2023-03-11T19:23:51.795Z,49.90
2023-03-11T19:26:19.154Z,48.80
2023-03-11T19:28:46.456Z,49.57
2023-03-11T19:31:14.282Z,49.33
2023-03-11T19:33:42.309Z,49.77
2023-03-11T19:36:09.840Z,50.77
2023-03-11T19:38:37.450Z,49.30
2023-03-11T19:41:08.164Z,49.50
2023-03-11T19:43:35.900Z,49.90
2023-03-11T19:46:04.275Z,48.30
2023-03-11T19:48:31.959Z,48.90
2023-03-11T19:50:59.237Z,48.83
2023-03-11T19:53:27.121Z,49.17
2023-03-11T19:55:56.374Z,49.07
2023-03-11T19:58:28.628Z,48.93
2023-03-11T20:00:58.266Z,48.23
2023-03-11T20:03:26.464Z,48.93
2023-03-11T20:05:56.546Z,50.17
2023-03-11T20:08:25.496Z,50.27
2023-03-11T20:10:53.996Z,49.00
2023-03-11T20:13:22.401Z,49.10
2023-03-11T20:15:50.129Z,49.47
2023-03-11T20:18:18.057Z,49.77
2023-03-11T20:20:46.650Z,50.93
2023-03-11T20:23:14.110Z,51.20
2023-03-11T20:25:42.325Z,51.00
2023-03-11T20:28:10.909Z,50.70
2023-03-11T20:30:39.243Z,51.47
2023-03-11T20:33:07.573Z,49.40
2023-03-11T20:35:35.341Z,49.73
2023-03-11T20:38:03.043Z,49.77
2023-03-11T20:40:30.697Z,50.27
2023-03-11T20:42:58.129Z,50.87
2023-03-11T20:45:25.655Z,52.50
2023-03-11T20:47:53.944Z,49.77
2023-03-11T20:50:22.409Z,50.93
2023-03-11T20:52:50.652Z,50.17
2023-03-11T20:55:18.099Z,51.47
2023-03-11T20:57:45.514Z,52.20
2023-03-11T21:00:13.918Z,50.40
2023-03-11T21:02:42.854Z,51.50
2023-03-11T21:05:11.538Z,51.77
2023-03-11T21:07:39.251Z,52.90
2023-03-11T21:10:10.523Z,51.20
2023-03-11T21:12:37.878Z,54.63
2023-03-11T21:15:07.159Z,66.40
2023-03-11T21:17:34.918Z,54.97
2023-03-11T21:20:04.823Z,50.57
2023-03-11T21:22:32.853Z,49.83
2023-03-11T21:25:00.275Z,51.73
2023-03-11T21:27:27.808Z,49.33
2023-03-11T21:29:59.089Z,50.50
2023-03-11T21:32:28.316Z,49.90
2023-03-11T21:34:59.871Z,50.80
2023-03-11T21:37:28.157Z,49.43
2023-03-11T21:39:55.776Z,51.47
2023-03-11T21:42:23.202Z,51.00
2023-03-11T21:44:51.396Z,50.77
2023-03-11T21:47:19.485Z,50.43
2023-03-11T21:49:46.993Z,51.93
2023-03-11T21:52:14.436Z,50.00
2023-03-11T21:54:41.831Z,50.63
2023-03-11T21:57:09.298Z,50.80
2023-03-11T21:59:36.659Z,51.93
2023-03-11T22:02:04.275Z,50.40
2023-03-11T22:04:32.229Z,49.70
2023-03-11T22:06:59.762Z,50.57
2023-03-11T22:09:26.906Z,52.87
2023-03-11T22:11:56.188Z,50.63
2023-03-11T22:14:24.209Z,53.83
2023-03-11T22:16:52.204Z,49.50
2023-03-11T22:19:19.872Z,77.67
2023-03-11T22:21:48.447Z,52.10
2023-03-11T22:24:16.244Z,53.43
2023-03-11T22:26:43.523Z,50.43
2023-03-11T22:29:13.350Z,50.57
2023-03-11T22:31:41.004Z,49.43
2023-03-11T22:34:08.397Z,54.20
2023-03-11T22:36:35.686Z,54.50
2023-03-11T22:39:04.317Z,52.77
2023-03-11T22:41:32.134Z,50.57
2023-03-11T22:43:59.424Z,50.50
2023-03-11T22:46:26.765Z,50.90
2023-03-11T22:48:54.170Z,50.73
2023-03-11T22:51:21.662Z,52.23
2023-03-11T22:53:48.956Z,49.00
2023-03-11T22:56:17.437Z,49.90
2023-03-11T22:58:44.924Z,51.00
2023-03-11T23:01:12.285Z,51.37
2023-03-11T23:03:39.952Z,49.77
2023-03-11T23:06:13.397Z,50.67
2023-03-11T23:08:40.722Z,50.00
2023-03-11T23:11:11.377Z,50.93
2023-03-11T23:13:40.506Z,52.43
2023-03-11T23:16:12.076Z,50.53
2023-03-11T23:18:39.824Z,50.03
2023-03-11T23:21:29.174Z,50.17
2023-03-11T23:23:56.941Z,50.13
2023-03-11T23:26:24.290Z,49.63
2023-03-11T23:28:51.692Z,50.63
2023-03-11T23:31:21.248Z,52.00
2023-03-11T23:33:48.715Z,56.73
2023-03-11T23:36:19.161Z,52.17
2023-03-11T23:38:47.405Z,51.40
2023-03-11T23:41:18.306Z,52.97
2023-03-11T23:43:45.795Z,51.50
2023-03-11T23:46:13.758Z,52.43
2023-03-11T23:48:41.284Z,51.70
2023-03-11T23:51:09.347Z,50.13
2023-03-11T23:53:37.131Z,51.87
2023-03-11T23:56:13.496Z,51.50
2023-03-11T23:58:40.991Z,52.50
